createdAt,value
2023-02-26T00:00:34.813Z,98.90
2023-02-26T00:03:01.699Z,98.90
2023-02-26T00:05:28.350Z,99.20
2023-02-26T00:07:55.172Z,99.30
2023-02-26T00:10:21.794Z,99.30
2023-02-26T00:12:48.666Z,99.30
2023-02-26T00:15:17.642Z,99.40
2023-02-26T00:18:06.559Z,99.50
2023-02-26T00:20:33.603Z,99.30
2023-02-26T00:23:00.594Z,99.30
2023-02-26T00:25:27.254Z,99.00
2023-02-26T00:27:54.158Z,99.30
2023-02-26T00:30:21.373Z,99.60
2023-02-26T00:32:48.252Z,99.50
2023-02-26T00:35:16.816Z,99.60
2023-02-26T00:37:59.807Z,99.90
2023-02-26T00:40:47.346Z,99.90
2023-02-26T00:43:18.228Z,99.90
2023-02-26T00:45:54.625Z,99.90
2023-02-26T00:48:34.796Z,99.70
2023-02-26T00:51:08.590Z,99.90
2023-02-26T00:53:46.403Z,99.80
2023-02-26T00:56:14.366Z,99.80
2023-02-26T00:58:41.126Z,99.90
2023-02-26T01:01:08.530Z,99.90
2023-02-26T01:03:35.654Z,99.90
2023-02-26T01:06:02.524Z,99.90
2023-02-26T01:08:39.892Z,99.90
2023-02-26T01:11:07.480Z,99.90
2023-02-26T01:13:34.361Z,99.90
2023-02-26T01:16:08.314Z,99.90
2023-02-26T01:18:46.200Z,99.90
2023-02-26T01:21:18.996Z,99.90
2023-02-26T01:23:48.958Z,99.90
2023-02-26T01:26:21.333Z,99.90
2023-02-26T01:28:48.466Z,99.90
2023-02-26T01:31:43.655Z,99.90
2023-02-26T01:34:32.866Z,99.90
2023-02-26T01:37:31.366Z,99.90
2023-02-26T01:40:06.705Z,99.90
2023-02-26T01:42:38.469Z,99.90
2023-02-26T01:45:20.351Z,99.90
2023-02-26T01:48:06.961Z,99.90
2023-02-26T01:50:38.335Z,99.90
2023-02-26T01:53:26.008Z,99.90
2023-02-26T01:56:00.022Z,99.90
2023-02-26T01:58:31.378Z,99.90
2023-02-26T02:00:58.029Z,99.90
2023-02-26T02:03:27.826Z,99.90
2023-02-26T02:05:59.083Z,99.90
2023-02-26T02:08:26.016Z,99.90
2023-02-26T02:10:53.699Z,99.90
2023-02-26T02:13:32.700Z,99.90
2023-02-26T02:16:14.347Z,99.90
2023-02-26T02:18:52.057Z,99.90
2023-02-26T02:21:41.734Z,99.90
2023-02-26T02:24:19.574Z,99.90
2023-02-26T02:27:18.780Z,99.90
2023-02-26T02:30:19.716Z,99.90
2023-02-26T02:33:27.372Z,99.90
2023-02-26T02:36:04.508Z,99.90
2023-02-26T02:38:38.547Z,99.90
2023-02-26T02:41:15.811Z,99.90
2023-02-26T02:43:44.102Z,99.90
2023-02-26T02:46:17.369Z,99.90
2023-02-26T02:48:54.459Z,99.90
2023-02-26T02:51:33.730Z,99.90
2023-02-26T02:54:08.016Z,99.90
2023-02-26T02:56:41.987Z,99.90
2023-02-26T02:59:23.262Z,99.90
2023-02-26T03:01:59.827Z,99.90
2023-02-26T03:04:26.552Z,99.90
2023-02-26T03:06:53.284Z,99.90
2023-02-26T03:09:20.036Z,99.90
2023-02-26T03:11:46.760Z,99.90
2023-02-26T03:14:15.625Z,99.90
2023-02-26T03:17:07.166Z,99.90
2023-02-26T03:19:55.273Z,99.90
2023-02-26T03:22:49.505Z,99.90
2023-02-26T03:25:29.075Z,99.90
2023-02-26T03:27:57.715Z,99.90
2023-02-26T03:30:38.339Z,99.90
2023-02-26T03:33:12.713Z,99.90
2023-02-26T03:35:52.146Z,99.90
2023-02-26T03:38:36.486Z,99.90
2023-02-26T03:41:14.544Z,99.90
2023-02-26T03:43:53.053Z,99.90
2023-02-26T03:46:27.340Z,99.90
2023-02-26T03:48:57.247Z,99.90
2023-02-26T03:51:26.700Z,99.90
2023-02-26T03:54:11.501Z,99.90
2023-02-26T03:56:45.708Z,99.90
2023-02-26T03:59:33.029Z,99.90
2023-02-26T04:02:41.214Z,99.90
2023-02-26T04:05:26.738Z,99.90
2023-02-26T04:07:54.050Z,99.90
2023-02-26T04:10:26.693Z,99.90
2023-02-26T04:12:53.350Z,99.90
2023-02-26T04:15:20.174Z,99.90
2023-02-26T04:17:46.889Z,99.90
2023-02-26T04:20:13.571Z,99.90
2023-02-26T04:22:40.472Z,99.90
2023-02-26T04:25:07.498Z,99.90
2023-02-26T04:27:34.205Z,99.90
2023-02-26T04:30:01.649Z,99.90
2023-02-26T04:32:29.540Z,99.90
2023-02-26T04:34:56.208Z,99.90
2023-02-26T04:37:23.781Z,99.90
2023-02-26T04:39:50.444Z,99.90
2023-02-26T04:42:17.205Z,99.90
2023-02-26T04:44:43.882Z,99.90
2023-02-26T04:47:12.801Z,99.90
2023-02-26T04:49:39.631Z,99.90
2023-02-26T04:52:06.864Z,99.90
2023-02-26T04:54:35.143Z,99.90
2023-02-26T04:57:01.847Z,99.90
2023-02-26T04:59:28.534Z,99.90
2023-02-26T05:01:56.786Z,99.90
2023-02-26T05:04:23.610Z,99.90
2023-02-26T05:06:54.052Z,99.90
2023-02-26T05:09:21.313Z,99.90
2023-02-26T05:11:48.826Z,99.90
2023-02-26T05:14:16.768Z,99.90
2023-02-26T05:16:44.941Z,99.90
2023-02-26T05:19:11.644Z,99.90
2023-02-26T05:21:38.659Z,99.90
2023-02-26T05:24:05.563Z,99.90
2023-02-26T05:26:32.292Z,99.90
2023-02-26T05:28:58.993Z,99.90
2023-02-26T05:31:26.852Z,99.90
2023-02-26T05:33:53.534Z,99.90
2023-02-26T05:36:20.211Z,99.90
2023-02-26T05:38:47.118Z,99.90
2023-02-26T05:41:13.751Z,99.90
2023-02-26T05:43:41.784Z,99.90
2023-02-26T05:46:08.439Z,99.90
2023-02-26T05:48:35.102Z,99.90
2023-02-26T05:51:02.773Z,99.90
2023-02-26T05:53:29.690Z,99.90
2023-02-26T05:55:56.464Z,99.90
2023-02-26T05:58:23.301Z,99.90
2023-02-26T06:00:50.294Z,99.90
2023-02-26T06:03:16.998Z,99.90
2023-02-26T06:05:43.682Z,99.90
2023-02-26T06:08:12.097Z,99.90
2023-02-26T06:10:38.741Z,99.90
2023-02-26T06:13:05.398Z,99.90
2023-02-26T06:15:32.211Z,99.90
2023-02-26T06:17:58.870Z,99.90
2023-02-26T06:20:25.525Z,99.90
2023-02-26T06:22:52.178Z,99.90
2023-02-26T06:25:18.936Z,99.90
2023-02-26T06:27:45.699Z,99.90
2023-02-26T06:30:12.700Z,99.90
2023-02-26T06:32:39.409Z,99.90
2023-02-26T06:35:06.592Z,99.90
2023-02-26T06:37:33.270Z,99.90
2023-02-26T06:39:59.904Z,99.90
2023-02-26T06:42:26.825Z,99.90
2023-02-26T06:44:53.472Z,99.90
2023-02-26T06:47:20.139Z,99.90
2023-02-26T06:49:46.804Z,99.90
2023-02-26T06:52:13.449Z,99.90
2023-02-26T06:54:40.072Z,99.90
2023-02-26T06:57:06.782Z,99.90
2023-02-26T06:59:33.592Z,99.90
2023-02-26T07:02:00.296Z,99.90
2023-02-26T07:04:26.975Z,99.90
2023-02-26T07:06:53.674Z,99.90
2023-02-26T07:09:20.438Z,99.90
2023-02-26T07:11:47.164Z,99.90
2023-02-26T07:14:14.223Z,99.90
2023-02-26T07:16:40.980Z,99.90
2023-02-26T07:19:07.715Z,99.90
2023-02-26T07:21:34.448Z,99.90
2023-02-26T07:24:01.324Z,99.90
2023-02-26T07:26:28.279Z,99.90
2023-02-26T07:28:55.024Z,99.90
2023-02-26T07:31:22.152Z,99.90
2023-02-26T07:33:48.844Z,99.90
2023-02-26T07:36:15.748Z,99.90
2023-02-26T07:38:42.396Z,99.90
2023-02-26T07:41:09.234Z,99.90
2023-02-26T07:43:36.119Z,99.90
2023-02-26T07:46:03.543Z,99.90
2023-02-26T07:48:30.287Z,99.90
2023-02-26T07:50:56.962Z,99.90
2023-02-26T07:53:23.702Z,99.90
2023-02-26T07:55:50.442Z,99.90
2023-02-26T07:58:17.523Z,99.90
2023-02-26T08:00:44.929Z,99.90
2023-02-26T08:03:11.657Z,99.90
2023-02-26T08:05:38.321Z,99.90
2023-02-26T08:08:05.174Z,99.90
2023-02-26T08:10:31.874Z,99.90
2023-02-26T08:12:58.524Z,99.90
2023-02-26T08:15:25.193Z,99.90
2023-02-26T08:17:54.940Z,99.90
2023-02-26T08:20:21.625Z,99.90
2023-02-26T08:22:48.430Z,99.90
2023-02-26T08:25:15.140Z,99.90
2023-02-26T08:27:42.488Z,99.90
2023-02-26T08:30:11.324Z,99.90
2023-02-26T08:32:39.786Z,99.90
2023-02-26T08:35:07.060Z,99.90
2023-02-26T08:37:33.738Z,99.50
2023-02-26T08:40:00.364Z,98.60
2023-02-26T08:42:27.059Z,97.30
2023-02-26T08:44:53.856Z,95.30
2023-02-26T08:47:28.431Z,93.80
2023-02-26T08:49:55.881Z,93.10
2023-02-26T08:52:22.986Z,93.30
2023-02-26T08:54:49.635Z,91.80
2023-02-26T08:57:16.526Z,90.00
2023-02-26T08:59:43.234Z,90.00
2023-02-26T09:02:13.911Z,89.60
2023-02-26T09:04:40.637Z,89.60
2023-02-26T09:07:07.415Z,88.50
2023-02-26T09:09:34.127Z,88.70
2023-02-26T09:12:00.805Z,87.20
2023-02-26T09:14:27.608Z,87.30
2023-02-26T09:16:54.415Z,88.00
2023-02-26T09:19:21.562Z,88.80
2023-02-26T09:21:48.235Z,88.00
2023-02-26T09:24:15.198Z,87.70
2023-02-26T09:26:41.884Z,88.50
2023-02-26T09:29:08.607Z,89.60
2023-02-26T09:31:35.396Z,88.30
2023-02-26T09:34:02.472Z,87.60
2023-02-26T09:36:31.071Z,87.80
2023-02-26T09:38:57.799Z,88.10
2023-02-26T09:41:32.396Z,88.50
2023-02-26T09:44:07.489Z,88.90
2023-02-26T09:46:48.357Z,88.50
2023-02-26T09:49:33.132Z,87.50
2023-02-26T09:52:23.274Z,86.70
2023-02-26T09:55:05.056Z,87.50
2023-02-26T09:57:34.385Z,88.10
2023-02-26T10:00:01.941Z,87.70
2023-02-26T10:02:50.158Z,88.30
2023-02-26T10:05:22.928Z,88.20
2023-02-26T10:07:58.971Z,88.30
2023-02-26T10:10:51.389Z,89.70
2023-02-26T10:13:56.515Z,89.40
2023-02-26T10:16:28.865Z,88.50
2023-02-26T10:19:03.530Z,89.20
2023-02-26T10:21:34.292Z,89.20
2023-02-26T10:24:15.598Z,87.80
2023-02-26T10:26:52.663Z,87.70
2023-02-26T10:29:26.954Z,86.10
2023-02-26T10:32:02.956Z,86.80
2023-02-26T10:34:47.125Z,88.00
2023-02-26T10:37:20.628Z,86.50
2023-02-26T10:40:12.872Z,85.70
2023-02-26T10:42:53.627Z,85.80
2023-02-26T10:45:26.174Z,86.30
2023-02-26T10:48:05.225Z,85.80
2023-02-26T10:50:32.255Z,84.30
2023-02-26T10:52:59.305Z,85.30
2023-02-26T10:55:47.175Z,85.20
2023-02-26T10:58:25.729Z,85.00
2023-02-26T11:00:55.757Z,84.50
2023-02-26T11:03:38.700Z,85.00
2023-02-26T11:06:06.684Z,84.70
2023-02-26T11:08:52.435Z,85.20
2023-02-26T11:11:46.851Z,85.80
2023-02-26T11:14:15.314Z,85.50
2023-02-26T11:16:51.133Z,85.40
2023-02-26T11:19:31.442Z,85.80
2023-02-26T11:21:59.961Z,85.80
2023-02-26T11:24:35.133Z,85.90
2023-02-26T11:27:04.390Z,84.90
2023-02-26T11:29:43.692Z,83.60
2023-02-26T11:32:18.933Z,81.90
2023-02-26T11:34:50.450Z,80.70
2023-02-26T11:37:21.167Z,81.40
2023-02-26T11:39:49.611Z,80.70
2023-02-26T11:42:18.281Z,81.40
2023-02-26T11:44:47.522Z,81.70
2023-02-26T11:47:17.663Z,82.50
2023-02-26T11:49:54.122Z,83.00
2023-02-26T11:52:36.095Z,83.10
2023-02-26T11:55:47.930Z,82.20
2023-02-26T11:58:21.873Z,81.10
2023-02-26T12:00:51.638Z,79.70
2023-02-26T12:03:22.473Z,79.00
2023-02-26T12:05:55.984Z,79.50
2023-02-26T12:08:32.373Z,80.70
2023-02-26T12:11:40.948Z,81.30
2023-02-26T12:14:41.251Z,81.00
2023-02-26T12:17:26.570Z,81.80
2023-02-26T12:20:19.832Z,80.10
2023-02-26T12:22:55.219Z,77.30
2023-02-26T12:25:32.613Z,77.30
2023-02-26T12:28:16.565Z,77.20
2023-02-26T12:31:01.937Z,77.40
2023-02-26T12:33:47.240Z,78.50
2023-02-26T12:36:36.404Z,78.70
2023-02-26T12:39:39.590Z,77.90
2023-02-26T12:42:41.493Z,79.30
2023-02-26T12:45:34.510Z,79.60
2023-02-26T12:48:16.217Z,78.30
2023-02-26T12:50:51.710Z,79.50
2023-02-26T12:53:34.010Z,78.80
2023-02-26T12:56:18.095Z,77.00
2023-02-26T12:58:59.750Z,77.30
2023-02-26T13:02:01.242Z,74.70
2023-02-26T13:04:59.165Z,75.30
2023-02-26T13:07:49.840Z,83.50
2023-02-26T13:10:56.182Z,77.10
2023-02-26T13:13:44.618Z,78.00
2023-02-26T13:16:14.039Z,78.30
2023-02-26T13:19:27.283Z,78.50
2023-02-26T13:22:01.724Z,79.50
2023-02-26T13:25:03.469Z,77.70
2023-02-26T13:27:35.024Z,75.60
2023-02-26T13:30:25.853Z,75.30
2023-02-26T13:32:56.182Z,75.40
2023-02-26T13:35:31.032Z,77.50
2023-02-26T13:38:01.250Z,78.00
2023-02-26T13:40:45.932Z,77.20
2023-02-26T13:43:40.304Z,76.00
2023-02-26T13:46:21.108Z,76.10
2023-02-26T13:49:16.456Z,77.20
2023-02-26T13:51:46.080Z,78.00
2023-02-26T13:54:14.152Z,77.10
2023-02-26T13:56:48.107Z,76.90
2023-02-26T13:59:17.300Z,76.30
2023-02-26T14:01:46.866Z,76.80
2023-02-26T14:04:22.943Z,75.70
2023-02-26T14:06:57.922Z,75.30
2023-02-26T14:09:26.258Z,74.80
2023-02-26T14:11:55.879Z,74.80
2023-02-26T14:14:22.486Z,75.80
2023-02-26T14:17:15.139Z,75.50
2023-02-26T14:19:44.263Z,75.00
2023-02-26T14:22:32.703Z,75.20
2023-02-26T14:25:10.498Z,74.70
2023-02-26T14:27:46.511Z,75.30
2023-02-26T14:30:18.935Z,75.20
2023-02-26T14:33:07.173Z,75.90
2023-02-26T14:35:43.154Z,77.00
2023-02-26T14:38:23.933Z,77.00
2023-02-26T14:41:20.971Z,77.00
2023-02-26T14:44:06.434Z,76.70
2023-02-26T14:46:34.757Z,77.10
2023-02-26T14:49:01.645Z,77.40
2023-02-26T14:51:40.108Z,76.10
2023-02-26T14:54:18.128Z,75.60
2023-02-26T14:57:07.646Z,74.90
2023-02-26T14:59:59.702Z,75.10
2023-02-26T15:03:02.120Z,75.60
2023-02-26T15:06:00.047Z,75.90
2023-02-26T15:08:51.773Z,76.40
2023-02-26T15:11:46.166Z,76.60
2023-02-26T15:14:36.859Z,77.50
2023-02-26T15:17:06.298Z,76.20
2023-02-26T15:20:04.136Z,75.80
2023-02-26T15:22:55.650Z,75.50
2023-02-26T15:25:43.944Z,74.40
2023-02-26T15:28:23.838Z,75.70
2023-02-26T15:30:52.147Z,75.20
2023-02-26T15:33:20.737Z,75.50
2023-02-26T15:35:52.043Z,75.30
2023-02-26T15:38:19.438Z,76.10
2023-02-26T15:40:47.934Z,76.30
2023-02-26T15:43:18.241Z,76.30
2023-02-26T15:45:47.910Z,76.00
2023-02-26T15:48:37.893Z,76.00
2023-02-26T15:51:07.191Z,76.50
2023-02-26T15:53:41.051Z,75.80
2023-02-26T15:56:19.445Z,75.70
2023-02-26T15:58:56.688Z,85.70
2023-02-26T16:01:26.242Z,75.90
2023-02-26T16:03:56.928Z,76.00
2023-02-26T16:06:28.019Z,76.20
2023-02-26T16:08:55.313Z,76.30
2023-02-26T16:11:23.904Z,76.10
2023-02-26T16:13:54.277Z,75.80
2023-02-26T16:16:43.792Z,76.40
2023-02-26T16:19:20.818Z,77.20
2023-02-26T16:21:48.479Z,77.50
2023-02-26T16:24:18.117Z,77.60
2023-02-26T16:26:53.865Z,78.10
2023-02-26T16:29:28.761Z,78.40
2023-02-26T16:31:58.499Z,78.40
2023-02-26T16:34:46.044Z,78.30
2023-02-26T16:37:32.425Z,78.00
2023-02-26T16:40:10.997Z,77.90
2023-02-26T16:42:50.342Z,78.30
2023-02-26T16:45:17.248Z,78.30
2023-02-26T16:47:47.894Z,78.70
2023-02-26T16:50:31.863Z,79.30
2023-02-26T16:53:05.928Z,79.30
2023-02-26T16:55:39.331Z,79.70
2023-02-26T16:58:15.475Z,79.70
2023-02-26T17:00:45.639Z,80.10
2023-02-26T17:03:21.074Z,79.90
2023-02-26T17:06:04.869Z,80.20
2023-02-26T17:08:42.445Z,80.30
2023-02-26T17:11:17.834Z,80.50
2023-02-26T17:13:44.554Z,84.10
2023-02-26T17:16:13.170Z,79.70
2023-02-26T17:18:40.108Z,80.10
2023-02-26T17:21:07.946Z,80.90
2023-02-26T17:23:37.695Z,81.20
2023-02-26T17:26:05.097Z,80.90
2023-02-26T17:28:40.382Z,81.40
2023-02-26T17:31:07.477Z,81.70
2023-02-26T17:33:35.551Z,81.80
2023-02-26T17:36:04.206Z,82.30
2023-02-26T17:38:33.292Z,81.80
2023-02-26T17:41:00.696Z,82.30
2023-02-26T17:43:28.650Z,82.90
2023-02-26T17:45:55.925Z,83.10
2023-02-26T17:48:23.191Z,83.30
2023-02-26T17:50:56.389Z,83.50
2023-02-26T17:53:29.493Z,83.20
2023-02-26T17:55:56.755Z,83.50
2023-02-26T17:58:33.669Z,83.40
2023-02-26T18:01:02.554Z,83.50
2023-02-26T18:03:29.254Z,83.60
2023-02-26T18:05:57.254Z,83.60
2023-02-26T18:08:32.536Z,84.00
2023-02-26T18:11:00.121Z,84.40
2023-02-26T18:13:27.998Z,85.10
2023-02-26T18:15:57.898Z,85.30
2023-02-26T18:18:25.724Z,84.90
2023-02-26T18:20:53.289Z,84.90
2023-02-26T18:23:20.081Z,84.90
2023-02-26T18:25:49.600Z,84.60
2023-02-26T18:28:24.731Z,84.90
2023-02-26T18:30:52.751Z,84.80
2023-02-26T18:33:20.857Z,85.20
2023-02-26T18:35:57.318Z,84.90
2023-02-26T18:38:26.938Z,85.00
2023-02-26T18:40:54.368Z,84.90
2023-02-26T18:43:21.557Z,85.00
2023-02-26T18:45:50.640Z,85.20
2023-02-26T18:48:20.294Z,85.10
2023-02-26T18:50:48.845Z,85.20
2023-02-26T18:53:17.173Z,85.30
2023-02-26T18:55:44.132Z,85.10
2023-02-26T18:58:11.992Z,85.10
2023-02-26T19:00:38.699Z,85.00
2023-02-26T19:03:05.741Z,84.90
2023-02-26T19:05:32.401Z,85.10
2023-02-26T19:07:59.735Z,85.10
2023-02-26T19:10:29.303Z,85.30
2023-02-26T19:12:56.100Z,85.30
2023-02-26T19:15:24.277Z,85.40
2023-02-26T19:17:51.120Z,85.40
2023-02-26T19:20:18.221Z,85.30
2023-02-26T19:22:46.414Z,85.40
2023-02-26T19:25:13.391Z,85.30
2023-02-26T19:27:40.644Z,85.40
2023-02-26T19:30:08.176Z,85.60
2023-02-26T19:32:34.910Z,85.70
2023-02-26T19:35:02.064Z,85.80
2023-02-26T19:37:28.819Z,85.80
2023-02-26T19:39:55.593Z,86.10
2023-02-26T19:42:24.240Z,86.30
2023-02-26T19:44:50.872Z,86.20
2023-02-26T19:47:17.551Z,86.10
2023-02-26T19:49:44.179Z,86.30
2023-02-26T19:52:11.356Z,86.50
2023-02-26T19:54:38.063Z,86.60
2023-02-26T19:57:04.692Z,86.80
2023-02-26T19:59:32.143Z,86.60
2023-02-26T20:01:58.859Z,86.50
2023-02-26T20:04:25.580Z,86.40
2023-02-26T20:06:52.267Z,86.50
2023-02-26T20:09:20.077Z,86.30
2023-02-26T20:11:46.754Z,86.50
2023-02-26T20:14:13.429Z,87.10
2023-02-26T20:16:41.450Z,87.00
2023-02-26T20:19:08.536Z,87.40
2023-02-26T20:21:35.336Z,87.90
2023-02-26T20:24:02.504Z,88.00
2023-02-26T20:26:29.200Z,87.90
2023-02-26T20:28:55.858Z,88.10
2023-02-26T20:31:22.730Z,88.40
2023-02-26T20:33:49.541Z,88.60
2023-02-26T20:36:16.408Z,89.10
2023-02-26T20:38:43.115Z,89.70
2023-02-26T20:41:09.828Z,89.30
2023-02-26T20:43:36.563Z,89.60
2023-02-26T20:46:03.341Z,89.80
2023-02-26T20:48:30.941Z,90.40
2023-02-26T20:51:02.471Z,90.70
2023-02-26T20:53:29.186Z,91.00
2023-02-26T20:55:56.250Z,91.30
2023-02-26T20:58:23.794Z,91.30
2023-02-26T21:00:52.147Z,90.80
2023-02-26T21:03:18.857Z,91.00
2023-02-26T21:05:46.738Z,91.30
2023-02-26T21:08:13.856Z,91.50
2023-02-26T21:10:43.578Z,91.80
2023-02-26T21:13:10.259Z,92.10
2023-02-26T21:15:37.139Z,92.10
2023-02-26T21:18:03.906Z,92.30
2023-02-26T21:20:30.633Z,91.80
2023-02-26T21:22:57.440Z,91.90
2023-02-26T21:25:24.241Z,91.90
2023-02-26T21:27:50.948Z,92.20
2023-02-26T21:30:17.929Z,92.20
2023-02-26T21:32:44.749Z,93.00
2023-02-26T21:35:16.615Z,93.60
2023-02-26T21:37:44.477Z,93.50
2023-02-26T21:40:12.929Z,93.40
2023-02-26T21:42:39.664Z,93.30
2023-02-26T21:45:06.809Z,93.20
2023-02-26T21:47:33.564Z,92.50
2023-02-26T21:50:00.219Z,92.30
2023-02-26T21:52:28.745Z,92.00
2023-02-26T21:54:59.239Z,91.90
2023-02-26T21:57:26.652Z,91.80
2023-02-26T21:59:53.384Z,91.90
2023-02-26T22:02:20.090Z,92.30
2023-02-26T22:04:46.857Z,92.70
2023-02-26T22:07:13.546Z,92.60
2023-02-26T22:09:40.219Z,92.30
2023-02-26T22:12:07.290Z,92.60
2023-02-26T22:14:34.073Z,92.60
2023-02-26T22:17:00.739Z,92.70
2023-02-26T22:19:27.529Z,92.70
2023-02-26T22:21:54.210Z,92.70
2023-02-26T22:24:20.881Z,92.80
2023-02-26T22:26:49.221Z,93.20
2023-02-26T22:29:18.338Z,93.40
2023-02-26T22:31:47.262Z,93.30
2023-02-26T22:34:14.174Z,93.20
2023-02-26T22:36:40.837Z,93.40
2023-02-26T22:39:07.686Z,93.60
2023-02-26T22:41:35.725Z,93.70
2023-02-26T22:44:02.663Z,93.80
2023-02-26T22:46:29.419Z,93.60
2023-02-26T22:48:56.648Z,93.70
2023-02-26T22:51:23.771Z,93.80
2023-02-26T22:53:50.774Z,93.70
2023-02-26T22:56:17.764Z,93.50
2023-02-26T22:58:44.940Z,93.40
2023-02-26T23:01:11.631Z,93.60
2023-02-26T23:03:38.486Z,93.70
2023-02-26T23:06:05.636Z,94.10
2023-02-26T23:08:32.277Z,94.00
2023-02-26T23:11:00.917Z,93.80
2023-02-26T23:13:30.593Z,93.90
2023-02-26T23:15:58.525Z,94.20
2023-02-26T23:18:25.255Z,94.50
2023-02-26T23:20:52.071Z,94.60
2023-02-26T23:23:18.844Z,94.70
2023-02-26T23:25:45.565Z,94.80
2023-02-26T23:28:12.391Z,94.80
2023-02-26T23:30:39.491Z,95.00
2023-02-26T23:33:07.146Z,94.90
2023-02-26T23:35:34.967Z,95.00
2023-02-26T23:38:01.681Z,95.20
2023-02-26T23:40:28.395Z,95.30
2023-02-26T23:42:56.053Z,95.50
2023-02-26T23:45:23.254Z,95.40
2023-02-26T23:47:50.457Z,95.50
2023-02-26T23:50:17.574Z,95.70
2023-02-26T23:52:44.243Z,95.70
2023-02-26T23:55:11.252Z,95.90
2023-02-26T23:57:37.892Z,95.80
